sensor_id;sensor_type;location;lat;lon;timestamp;pressure;altitude;pressure_sealevel;temperature;humidity
79004;BME280;68369;51.050;17.018;2023-07-08T00:01:27;100773.08;;;15.92;63.15
79004;BME280;68369;51.050;17.018;2023-07-08T00:04:12;100769.77;;;15.87;63.04
79004;BME280;68369;51.050;17.018;2023-07-08T00:06:57;100772.86;;;15.83;63.38
79004;BME280;68369;51.050;17.018;2023-07-08T00:09:43;100769.41;;;15.78;63.53
79004;BME280;68369;51.050;17.018;2023-07-08T00:12:28;100771.47;;;15.77;63.55
79004;BME280;68369;51.050;17.018;2023-07-08T00:15:33;100773.19;;;15.77;63.65
79004;BME280;68369;51.050;17.018;2023-07-08T00:18:19;100771.47;;;15.76;63.68
79004;BME280;68369;51.050;17.018;2023-07-08T00:21:11;100768.79;;;15.74;63.91
79004;BME280;68369;51.050;17.018;2023-07-08T00:24:01;100767.83;;;15.69;63.95
79004;BME280;68369;51.050;17.018;2023-07-08T00:26:49;100768.66;;;15.66;64.18
79004;BME280;68369;51.050;17.018;2023-07-08T00:29:34;100770.60;;;15.63;64.17
79004;BME280;68369;51.050;17.018;2023-07-08T00:32:19;100769.20;;;15.60;64.15
79004;BME280;68369;51.050;17.018;2023-07-08T00:35:05;100765.14;;;15.57;64.12
79004;BME280;68369;51.050;17.018;2023-07-08T00:37:52;100765.08;;;15.55;64.20
79004;BME280;68369;51.050;17.018;2023-07-08T00:40:50;100765.65;;;15.54;64.49
79004;BME280;68369;51.050;17.018;2023-07-08T00:43:47;100763.96;;;15.52;64.46
79004;BME280;68369;51.050;17.018;2023-07-08T00:52:27;100763.23;;;15.43;64.72
79004;BME280;68369;51.050;17.018;2023-07-08T00:55:14;100756.86;;;15.40;64.97
79004;BME280;68369;51.050;17.018;2023-07-08T00:57:59;100759.48;;;15.37;64.95
79004;BME280;68369;51.050;17.018;2023-07-08T01:00:45;100760.64;;;15.36;65.00
79004;BME280;68369;51.050;17.018;2023-07-08T01:03:31;100760.95;;;15.37;65.17
79004;BME280;68369;51.050;17.018;2023-07-08T01:06:22;100757.64;;;15.36;65.46
79004;BME280;68369;51.050;17.018;2023-07-08T01:09:17;100758.27;;;15.34;65.25
79004;BME280;68369;51.050;17.018;2023-07-08T01:12:09;100757.16;;;15.32;65.24
79004;BME280;68369;51.050;17.018;2023-07-08T01:14:59;100754.68;;;15.29;65.23
79004;BME280;68369;51.050;17.018;2023-07-08T01:17:50;100757.70;;;15.25;65.47
79004;BME280;68369;51.050;17.018;2023-07-08T01:20:39;100761.27;;;15.21;65.52
79004;BME280;68369;51.050;17.018;2023-07-08T01:23:25;100756.80;;;15.16;65.51
79004;BME280;68369;51.050;17.018;2023-07-08T01:26:10;100752.52;;;15.17;65.38
79004;BME280;68369;51.050;17.018;2023-07-08T01:28:56;100750.76;;;15.17;65.72
79004;BME280;68369;51.050;17.018;2023-07-08T01:31:42;100749.56;;;15.16;65.53
79004;BME280;68369;51.050;17.018;2023-07-08T01:34:36;100744.08;;;15.13;65.59
79004;BME280;68369;51.050;17.018;2023-07-08T01:37:52;100740.38;;;15.10;65.66
79004;BME280;68369;51.050;17.018;2023-07-08T01:46:37;100747.21;;;14.94;66.34
79004;BME280;68369;51.050;17.018;2023-07-08T01:49:24;100746.39;;;14.93;66.25
79004;BME280;68369;51.050;17.018;2023-07-08T01:52:12;100736.81;;;14.87;66.26
79004;BME280;68369;51.050;17.018;2023-07-08T01:55:02;100742.61;;;14.91;66.32
79004;BME280;68369;51.050;17.018;2023-07-08T01:57:51;100742.10;;;14.84;66.47
79004;BME280;68369;51.050;17.018;2023-07-08T02:00:39;100725.42;;;14.70;66.32
79004;BME280;68369;51.050;17.018;2023-07-08T02:03:26;100745.11;;;14.80;66.51
79004;BME280;68369;51.050;17.018;2023-07-08T02:06:15;100741.66;;;14.72;66.57
79004;BME280;68369;51.050;17.018;2023-07-08T02:09:01;100743.41;;;14.73;66.68
79004;BME280;68369;51.050;17.018;2023-07-08T02:11:51;100729.34;;;14.62;66.77
79004;BME280;68369;51.050;17.018;2023-07-08T02:14:41;100745.27;;;14.71;66.63
79004;BME280;68369;51.050;17.018;2023-07-08T02:17:28;100743.39;;;14.70;66.84
79004;BME280;68369;51.050;17.018;2023-07-08T02:20:17;100744.88;;;14.68;66.89
79004;BME280;68369;51.050;17.018;2023-07-08T02:46:16;100730.02;;;14.42;67.21
79004;BME280;68369;51.050;17.018;2023-07-08T02:49:03;100740.84;;;14.44;67.25
79004;BME280;68369;51.050;17.018;2023-07-08T02:51:51;100740.02;;;14.39;67.41
79004;BME280;68369;51.050;17.018;2023-07-08T02:54:37;100731.15;;;14.30;67.36
79004;BME280;68369;51.050;17.018;2023-07-08T02:57:24;100733.96;;;14.27;67.47
79004;BME280;68369;51.050;17.018;2023-07-08T03:00:12;100739.75;;;14.27;67.31
79004;BME280;68369;51.050;17.018;2023-07-08T03:02:59;100734.12;;;14.24;67.55
79004;BME280;68369;51.050;17.018;2023-07-08T03:05:58;100727.89;;;14.18;67.33
79004;BME280;68369;51.050;17.018;2023-07-08T03:08:46;100742.36;;;14.21;67.57
79004;BME280;68369;51.050;17.018;2023-07-08T03:11:33;100724.39;;;14.11;67.74
79004;BME280;68369;51.050;17.018;2023-07-08T03:14:19;100739.11;;;14.15;67.85
79004;BME280;68369;51.050;17.018;2023-07-08T03:17:06;100739.45;;;14.12;68.23
79004;BME280;68369;51.050;17.018;2023-07-08T03:19:52;100728.25;;;14.03;68.21
79004;BME280;68369;51.050;17.018;2023-07-08T03:22:38;100739.13;;;14.12;68.39
79004;BME280;68369;51.050;17.018;2023-07-08T03:25:25;100729.67;;;14.03;68.32
79004;BME280;68369;51.050;17.018;2023-07-08T03:28:11;100752.59;;;14.17;68.52
79004;BME280;68369;51.050;17.018;2023-07-08T03:31:02;100741.23;;;14.08;68.54
79004;BME280;68369;51.050;17.018;2023-07-08T03:33:49;100751.67;;;14.14;68.67
79004;BME280;68369;51.050;17.018;2023-07-08T03:36:46;100748.33;;;14.11;68.89
79004;BME280;68369;51.050;17.018;2023-07-08T03:39:37;100750.92;;;14.15;69.13
79004;BME280;68369;51.050;17.018;2023-07-08T03:42:23;100748.38;;;14.17;69.09
79004;BME280;68369;51.050;17.018;2023-07-08T03:45:09;100757.16;;;14.21;69.18
79004;BME280;68369;51.050;17.018;2023-07-08T03:47:55;100760.80;;;14.22;69.41
79004;BME280;68369;51.050;17.018;2023-07-08T03:51:01;100757.59;;;14.23;69.34
79004;BME280;68369;51.050;17.018;2023-07-08T03:53:47;100756.76;;;14.22;69.48
79004;BME280;68369;51.050;17.018;2023-07-08T03:56:33;100754.65;;;14.22;69.49
79004;BME280;68369;51.050;17.018;2023-07-08T03:59:18;100753.34;;;14.23;69.47
79004;BME280;68369;51.050;17.018;2023-07-08T04:02:09;100759.51;;;14.26;69.99
79004;BME280;68369;51.050;17.018;2023-07-08T04:04:55;100735.12;;;14.14;69.92
79004;BME280;68369;51.050;17.018;2023-07-08T04:07:41;100760.33;;;14.31;70.12
79004;BME280;68369;51.050;17.018;2023-07-08T04:10:27;100761.81;;;14.33;70.06
79004;BME280;68369;51.050;17.018;2023-07-08T04:13:12;100761.13;;;14.32;70.05
79004;BME280;68369;51.050;17.018;2023-07-08T04:32:48;100741.79;;;14.67;70.52
79004;BME280;68369;51.050;17.018;2023-07-08T04:35:36;100739.29;;;14.70;70.45
79004;BME280;68369;51.050;17.018;2023-07-08T04:38:25;100744.58;;;14.74;70.53
79004;BME280;68369;51.050;17.018;2023-07-08T04:41:12;100737.86;;;14.78;70.47
79004;BME280;68369;51.050;17.018;2023-07-08T04:43:59;100740.45;;;14.85;70.64
79004;BME280;68369;51.050;17.018;2023-07-08T04:47:14;100738.88;;;14.92;70.79
79004;BME280;68369;51.050;17.018;2023-07-08T04:49:59;100736.66;;;14.97;70.71
79004;BME280;68369;51.050;17.018;2023-07-08T04:52:45;100744.75;;;15.04;70.58
79004;BME280;68369;51.050;17.018;2023-07-08T04:55:30;100740.99;;;15.08;70.67
79004;BME280;68369;51.050;17.018;2023-07-08T04:58:16;100740.48;;;15.14;70.80
79004;BME280;68369;51.050;17.018;2023-07-08T05:01:02;100732.60;;;15.20;70.74
79004;BME280;68369;51.050;17.018;2023-07-08T05:03:48;100740.10;;;15.31;70.56
79004;BME280;68369;51.050;17.018;2023-07-08T05:06:34;100740.83;;;15.37;70.75
79004;BME280;68369;51.050;17.018;2023-07-08T05:09:20;100742.36;;;15.44;70.92
79004;BME280;68369;51.050;17.018;2023-07-08T05:12:08;100745.71;;;15.51;70.62
79004;BME280;68369;51.050;17.018;2023-07-08T05:14:53;100745.61;;;15.62;70.31
79004;BME280;68369;51.050;17.018;2023-07-08T05:17:40;100748.02;;;15.73;70.50
79004;BME280;68369;51.050;17.018;2023-07-08T05:20:28;100748.30;;;15.83;70.34
79004;BME280;68369;51.050;17.018;2023-07-08T05:23:14;100747.16;;;15.94;70.55
79004;BME280;68369;51.050;17.018;2023-07-08T05:26:01;100745.16;;;16.04;70.28
79004;BME280;68369;51.050;17.018;2023-07-08T05:28:47;100745.70;;;16.13;70.21
79004;BME280;68369;51.050;17.018;2023-07-08T05:31:33;100745.39;;;16.21;70.31
79004;BME280;68369;51.050;17.018;2023-07-08T05:34:23;100740.15;;;16.32;70.21
79004;BME280;68369;51.050;17.018;2023-07-08T05:37:08;100738.90;;;16.44;70.22
79004;BME280;68369;51.050;17.018;2023-07-08T05:39:55;100739.39;;;16.54;70.06
79004;BME280;68369;51.050;17.018;2023-07-08T05:42:42;100739.04;;;16.66;69.69
79004;BME280;68369;51.050;17.018;2023-07-08T05:45:27;100740.58;;;16.75;69.31
79004;BME280;68369;51.050;17.018;2023-07-08T05:48:13;100742.22;;;16.87;69.03
79004;BME280;68369;51.050;17.018;2023-07-08T05:50:58;100745.73;;;16.98;68.84
79004;BME280;68369;51.050;17.018;2023-07-08T05:53:45;100745.37;;;17.09;68.43
79004;BME280;68369;51.050;17.018;2023-07-08T05:56:30;100747.12;;;17.21;67.93
79004;BME280;68369;51.050;17.018;2023-07-08T05:59:18;100751.90;;;17.35;67.09
79004;BME280;68369;51.050;17.018;2023-07-08T06:02:04;100754.91;;;17.52;66.61
79004;BME280;68369;51.050;17.018;2023-07-08T06:04:50;100752.11;;;17.70;66.23
79004;BME280;68369;51.050;17.018;2023-07-08T06:07:35;100750.80;;;17.91;65.71
79004;BME280;68369;51.050;17.018;2023-07-08T06:10:20;100748.38;;;18.11;65.52
79004;BME280;68369;51.050;17.018;2023-07-08T06:13:05;100747.20;;;18.32;65.89
79004;BME280;68369;51.050;17.018;2023-07-08T06:15:51;100742.80;;;18.49;65.59
79004;BME280;68369;51.050;17.018;2023-07-08T06:18:36;100738.02;;;18.67;65.00
79004;BME280;68369;51.050;17.018;2023-07-08T06:21:21;100736.08;;;18.85;64.69
79004;BME280;68369;51.050;17.018;2023-07-08T06:24:07;100737.55;;;19.02;64.51
79004;BME280;68369;51.050;17.018;2023-07-08T06:26:52;100739.46;;;19.23;64.28
79004;BME280;68369;51.050;17.018;2023-07-08T06:29:41;100743.30;;;19.41;64.35
79004;BME280;68369;51.050;17.018;2023-07-08T06:35:31;100743.63;;;19.85;63.53
79004;BME280;68369;51.050;17.018;2023-07-08T06:38:17;100743.15;;;20.08;63.39
79004;BME280;68369;51.050;17.018;2023-07-08T06:41:02;100745.36;;;20.31;62.93
79004;BME280;68369;51.050;17.018;2023-07-08T06:43:48;100740.73;;;20.52;62.61
79004;BME280;68369;51.050;17.018;2023-07-08T06:46:34;100738.66;;;20.74;61.77
79004;BME280;68369;51.050;17.018;2023-07-08T06:49:19;100739.59;;;20.96;61.42
79004;BME280;68369;51.050;17.018;2023-07-08T06:52:05;100734.94;;;21.19;60.51
79004;BME280;68369;51.050;17.018;2023-07-08T06:54:50;100734.15;;;21.40;59.45
79004;BME280;68369;51.050;17.018;2023-07-08T07:07:45;100730.51;;;22.48;56.04
79004;BME280;68369;51.050;17.018;2023-07-08T07:10:30;100741.66;;;22.79;54.86
79004;BME280;68369;51.050;17.018;2023-07-08T07:13:16;100744.02;;;23.05;53.60
79004;BME280;68369;51.050;17.018;2023-07-08T07:16:02;100749.20;;;23.31;52.63
79004;BME280;68369;51.050;17.018;2023-07-08T07:22:05;100742.40;;;23.83;48.41
79004;BME280;68369;51.050;17.018;2023-07-08T07:24:52;100748.27;;;24.09;47.67
79004;BME280;68369;51.050;17.018;2023-07-08T07:27:38;100750.42;;;24.32;47.99
79004;BME280;68369;51.050;17.018;2023-07-08T07:34:07;100752.41;;;24.92;45.35
79004;BME280;68369;51.050;17.018;2023-07-08T07:36:54;100753.17;;;25.22;43.90
79004;BME280;68369;51.050;17.018;2023-07-08T07:40:00;100750.48;;;25.50;42.63
79004;BME280;68369;51.050;17.018;2023-07-08T07:42:46;100752.63;;;25.80;43.10
79004;BME280;68369;51.050;17.018;2023-07-08T07:45:31;100750.35;;;26.07;40.73
79004;BME280;68369;51.050;17.018;2023-07-08T07:48:18;100745.12;;;26.27;40.38
79004;BME280;68369;51.050;17.018;2023-07-08T07:51:04;100750.97;;;26.50;40.11
79004;BME280;68369;51.050;17.018;2023-07-08T07:53:49;100748.25;;;26.77;39.08
79004;BME280;68369;51.050;17.018;2023-07-08T07:56:35;100749.23;;;27.05;38.71
79004;BME280;68369;51.050;17.018;2023-07-08T07:59:21;100747.64;;;27.36;37.76
79004;BME280;68369;51.050;17.018;2023-07-08T08:02:07;100745.55;;;27.67;38.23
79004;BME280;68369;51.050;17.018;2023-07-08T08:04:53;100747.02;;;28.05;37.38
79004;BME280;68369;51.050;17.018;2023-07-08T08:07:38;100749.56;;;28.33;36.48
79004;BME280;68369;51.050;17.018;2023-07-08T08:10:25;100751.93;;;28.60;36.66
79004;BME280;68369;51.050;17.018;2023-07-08T08:13:11;100751.46;;;28.85;36.32
79004;BME280;68369;51.050;17.018;2023-07-08T08:15:58;100745.77;;;29.05;35.04
79004;BME280;68369;51.050;17.018;2023-07-08T08:21:56;100743.77;;;29.32;34.90
79004;BME280;68369;51.050;17.018;2023-07-08T08:24:42;100739.11;;;29.45;33.75
79004;BME280;68369;51.050;17.018;2023-07-08T08:27:27;100737.98;;;29.58;32.89
79004;BME280;68369;51.050;17.018;2023-07-08T08:30:12;100741.45;;;29.65;31.98
79004;BME280;68369;51.050;17.018;2023-07-08T08:32:57;100743.52;;;29.74;31.85
79004;BME280;68369;51.050;17.018;2023-07-08T08:35:44;100740.36;;;29.85;32.69
79004;BME280;68369;51.050;17.018;2023-07-08T08:38:30;100739.35;;;30.02;31.90
79004;BME280;68369;51.050;17.018;2023-07-08T08:41:25;100737.01;;;30.08;30.65
79004;BME280;68369;51.050;17.018;2023-07-08T08:44:29;100738.02;;;30.07;30.23
79004;BME280;68369;51.050;17.018;2023-07-08T08:48:00;100739.64;;;30.21;31.17
79004;BME280;68369;51.050;17.018;2023-07-08T08:50:56;100741.06;;;30.27;29.56
79004;BME280;68369;51.050;17.018;2023-07-08T08:53:45;100735.10;;;30.30;29.47
79004;BME280;68369;51.050;17.018;2023-07-08T09:05:18;100727.81;;;30.41;27.50
79004;BME280;68369;51.050;17.018;2023-07-08T09:11:10;100730.84;;;30.53;28.86
79004;BME280;68369;51.050;17.018;2023-07-08T09:13:57;100732.09;;;30.58;28.61
79004;BME280;68369;51.050;17.018;2023-07-08T09:16:49;100728.13;;;30.58;26.74
79004;BME280;68369;51.050;17.018;2023-07-08T09:26:19;100716.16;;;30.76;27.85
79004;BME280;68369;51.050;17.018;2023-07-08T09:29:09;100713.00;;;30.90;28.04
79004;BME280;68369;51.050;17.018;2023-07-08T09:31:56;100715.29;;;30.98;27.85
79004;BME280;68369;51.050;17.018;2023-07-08T09:35:07;100713.27;;;31.01;27.47
79004;BME280;68369;51.050;17.018;2023-07-08T09:37:53;100714.55;;;31.07;27.19
79004;BME280;68369;51.050;17.018;2023-07-08T09:40:39;100713.53;;;31.14;26.23
79004;BME280;68369;51.050;17.018;2023-07-08T09:43:33;100709.83;;;31.09;24.10
79004;BME280;68369;51.050;17.018;2023-07-08T09:46:23;100704.70;;;31.07;25.72
79004;BME280;68369;51.050;17.018;2023-07-08T09:49:34;100697.96;;;31.15;26.63
79004;BME280;68369;51.050;17.018;2023-07-08T09:52:21;100695.37;;;31.22;25.59
79004;BME280;68369;51.050;17.018;2023-07-08T09:55:13;100690.43;;;31.28;25.81
79004;BME280;68369;51.050;17.018;2023-07-08T09:57:59;100690.83;;;31.30;25.60
79004;BME280;68369;51.050;17.018;2023-07-08T10:01:01;100694.04;;;31.39;26.34
79004;BME280;68369;51.050;17.018;2023-07-08T10:03:49;100697.06;;;31.48;26.44
79004;BME280;68369;51.050;17.018;2023-07-08T10:06:35;100698.08;;;31.53;25.72
79004;BME280;68369;51.050;17.018;2023-07-08T10:09:24;100699.63;;;31.57;25.66
79004;BME280;68369;51.050;17.018;2023-07-08T10:12:15;100699.61;;;31.65;24.79
79004;BME280;68369;51.050;17.018;2023-07-08T10:15:26;100691.18;;;31.70;25.60
79004;BME280;68369;51.050;17.018;2023-07-08T10:18:16;100695.04;;;31.75;24.13
79004;BME280;68369;51.050;17.018;2023-07-08T10:21:15;100690.13;;;31.78;24.41
79004;BME280;68369;51.050;17.018;2023-07-08T10:24:37;100684.94;;;31.86;24.27
79004;BME280;68369;51.050;17.018;2023-07-08T10:27:37;100685.87;;;32.12;25.29
79004;BME280;68369;51.050;17.018;2023-07-08T10:30:47;100686.38;;;32.26;24.52
79004;BME280;68369;51.050;17.018;2023-07-08T10:34:18;100688.02;;;32.27;24.57
79004;BME280;68369;51.050;17.018;2023-07-08T10:37:29;100685.13;;;32.22;22.83
79004;BME280;68369;51.050;17.018;2023-07-08T10:43:31;100681.90;;;32.25;24.48
79004;BME280;68369;51.050;17.018;2023-07-08T11:19:48;100657.01;;;32.35;23.48
79004;BME280;68369;51.050;17.018;2023-07-08T11:22:47;100654.77;;;32.33;23.46
79004;BME280;68369;51.050;17.018;2023-07-08T11:32:23;100654.49;;;32.42;23.02
79004;BME280;68369;51.050;17.018;2023-07-08T11:35:36;100645.73;;;32.39;23.32
79004;BME280;68369;51.050;17.018;2023-07-08T11:38:26;100645.59;;;32.33;23.21
79004;BME280;68369;51.050;17.018;2023-07-08T11:51:04;100638.94;;;32.05;22.80
79004;BME280;68369;51.050;17.018;2023-07-08T11:54:46;100636.13;;;32.07;22.34
79004;BME280;68369;51.050;17.018;2023-07-08T11:57:24;100622.70;;;32.09;22.41
79004;BME280;68369;51.050;17.018;2023-07-08T12:00:22;100635.58;;;32.14;22.63
79004;BME280;68369;51.050;17.018;2023-07-08T12:03:21;100631.11;;;32.09;23.03
79004;BME280;68369;51.050;17.018;2023-07-08T12:09:23;100624.33;;;31.96;23.14
79004;BME280;68369;51.050;17.018;2023-07-08T12:12:25;100621.06;;;31.88;22.98
79004;BME280;68369;51.050;17.018;2023-07-08T12:15:32;100619.59;;;31.86;22.80
79004;BME280;68369;51.050;17.018;2023-07-08T12:19:06;100619.69;;;31.85;22.41
79004;BME280;68369;51.050;17.018;2023-07-08T12:21:58;100615.16;;;31.91;22.80
79004;BME280;68369;51.050;17.018;2023-07-08T12:24:45;100593.75;;;31.87;22.82
79004;BME280;68369;51.050;17.018;2023-07-08T12:27:32;100598.60;;;31.93;22.67
79004;BME280;68369;51.050;17.018;2023-07-08T12:30:19;100598.75;;;31.96;22.98
79004;BME280;68369;51.050;17.018;2023-07-08T12:33:30;100600.92;;;32.02;22.93
79004;BME280;68369;51.050;17.018;2023-07-08T12:36:24;100605.43;;;32.12;23.09
79004;BME280;68369;51.050;17.018;2023-07-08T12:39:14;100609.58;;;32.22;22.84
79004;BME280;68369;51.050;17.018;2023-07-08T12:42:00;100601.63;;;32.27;22.78
79004;BME280;68369;51.050;17.018;2023-07-08T12:44:46;100597.02;;;32.33;22.90
79004;BME280;68369;51.050;17.018;2023-07-08T12:47:33;100592.81;;;32.35;22.44
79004;BME280;68369;51.050;17.018;2023-07-08T12:50:19;100593.36;;;32.39;22.73
79004;BME280;68369;51.050;17.018;2023-07-08T12:53:06;100590.89;;;32.44;22.60
79004;BME280;68369;51.050;17.018;2023-07-08T12:55:56;100590.42;;;32.48;22.81
79004;BME280;68369;51.050;17.018;2023-07-08T12:58:50;100589.60;;;32.49;22.81
79004;BME280;68369;51.050;17.018;2023-07-08T13:01:36;100586.33;;;32.47;22.77
79004;BME280;68369;51.050;17.018;2023-07-08T13:04:23;100587.79;;;32.43;22.28
79004;BME280;68369;51.050;17.018;2023-07-08T13:07:21;100580.30;;;32.42;22.34
79004;BME280;68369;51.050;17.018;2023-07-08T13:10:23;100577.25;;;32.43;22.42
79004;BME280;68369;51.050;17.018;2023-07-08T13:13:21;100567.66;;;32.40;22.47
79004;BME280;68369;51.050;17.018;2023-07-08T13:16:09;100571.05;;;32.34;22.51
79004;BME280;68369;51.050;17.018;2023-07-08T13:18:58;100564.66;;;32.27;22.38
79004;BME280;68369;51.050;17.018;2023-07-08T13:21:45;100556.86;;;32.25;21.59
79004;BME280;68369;51.050;17.018;2023-07-08T13:24:34;100559.74;;;32.31;21.14
79004;BME280;68369;51.050;17.018;2023-07-08T13:27:24;100558.45;;;32.39;21.88
79004;BME280;68369;51.050;17.018;2023-07-08T13:30:20;100557.52;;;32.39;22.17
79004;BME280;68369;51.050;17.018;2023-07-08T13:33:15;100555.42;;;32.33;22.18
79004;BME280;68369;51.050;17.018;2023-07-08T13:36:05;100548.79;;;32.22;22.20
79004;BME280;68369;51.050;17.018;2023-07-08T13:38:53;100549.23;;;32.18;22.05
79004;BME280;68369;51.050;17.018;2023-07-08T13:41:45;100544.98;;;32.14;21.75
79004;BME280;68369;51.050;17.018;2023-07-08T13:44:33;100541.61;;;32.17;21.92
79004;BME280;68369;51.050;17.018;2023-07-08T13:47:29;100542.02;;;32.16;21.72
79004;BME280;68369;51.050;17.018;2023-07-08T13:50:24;100536.67;;;32.24;20.96
79004;BME280;68369;51.050;17.018;2023-07-08T13:53:21;100537.73;;;32.43;21.93
79004;BME280;68369;51.050;17.018;2023-07-08T13:56:21;100536.95;;;32.66;21.48
79004;BME280;68369;51.050;17.018;2023-07-08T13:59:11;100530.36;;;32.91;21.57
79004;BME280;68369;51.050;17.018;2023-07-08T14:02:00;100529.59;;;33.14;21.37
79004;BME280;68369;51.050;17.018;2023-07-08T14:04:46;100529.34;;;33.36;21.52
79004;BME280;68369;51.050;17.018;2023-07-08T14:07:33;100531.29;;;33.44;22.10
79004;BME280;68369;51.050;17.018;2023-07-08T14:10:19;100532.57;;;33.27;22.18
79004;BME280;68369;51.050;17.018;2023-07-08T14:13:04;100526.86;;;33.13;22.59
79004;BME280;68369;51.050;17.018;2023-07-08T14:15:50;100531.22;;;33.00;22.69
79004;BME280;68369;51.050;17.018;2023-07-08T14:18:35;100533.09;;;32.93;22.77
79004;BME280;68369;51.050;17.018;2023-07-08T14:21:21;100527.76;;;32.84;22.74
79004;BME280;68369;51.050;17.018;2023-07-08T14:24:12;100519.48;;;32.75;22.59
79004;BME280;68369;51.050;17.018;2023-07-08T14:26:59;100528.98;;;32.75;21.96
79004;BME280;68369;51.050;17.018;2023-07-08T14:29:50;100526.72;;;32.70;21.80
79004;BME280;68369;51.050;17.018;2023-07-08T14:33:19;100528.45;;;32.60;22.43
79004;BME280;68369;51.050;17.018;2023-07-08T14:36:13;100524.94;;;32.52;21.32
79004;BME280;68369;51.050;17.018;2023-07-08T14:39:12;100525.48;;;32.50;22.68
79004;BME280;68369;51.050;17.018;2023-07-08T14:41:59;100524.33;;;32.47;22.63
79004;BME280;68369;51.050;17.018;2023-07-08T14:44:50;100525.23;;;32.46;22.16
79004;BME280;68369;51.050;17.018;2023-07-08T14:47:35;100522.24;;;32.42;21.82
79004;BME280;68369;51.050;17.018;2023-07-08T14:50:23;100519.80;;;32.36;21.69
79004;BME280;68369;51.050;17.018;2023-07-08T14:53:16;100520.81;;;32.30;22.20
79004;BME280;68369;51.050;17.018;2023-07-08T14:56:15;100511.76;;;32.16;22.50
79004;BME280;68369;51.050;17.018;2023-07-08T14:59:03;100519.70;;;32.08;22.62
79004;BME280;68369;51.050;17.018;2023-07-08T15:01:53;100516.36;;;32.00;22.76
79004;BME280;68369;51.050;17.018;2023-07-08T15:04:40;100514.42;;;32.00;22.85
79004;BME280;68369;51.050;17.018;2023-07-08T15:07:25;100513.91;;;31.93;22.87
79004;BME280;68369;51.050;17.018;2023-07-08T15:10:11;100511.11;;;31.87;22.96
79004;BME280;68369;51.050;17.018;2023-07-08T15:12:58;100509.59;;;31.78;23.03
79004;BME280;68369;51.050;17.018;2023-07-08T15:16:01;100505.77;;;31.63;23.45
79004;BME280;68369;51.050;17.018;2023-07-08T15:18:47;100504.86;;;31.55;23.50
79004;BME280;68369;51.050;17.018;2023-07-08T15:21:34;100509.71;;;31.60;23.71
79004;BME280;68369;51.050;17.018;2023-07-08T15:24:20;100503.39;;;31.90;23.42
79004;BME280;68369;51.050;17.018;2023-07-08T15:27:10;100504.90;;;32.43;23.01
79004;BME280;68369;51.050;17.018;2023-07-08T15:29:57;100504.63;;;33.27;22.60
79004;BME280;68369;51.050;17.018;2023-07-08T15:32:43;100507.55;;;34.58;21.41
79004;BME280;68369;51.050;17.018;2023-07-08T15:35:29;100509.82;;;35.55;20.40
79004;BME280;68369;51.050;17.018;2023-07-08T15:38:17;100504.00;;;36.31;20.00
79004;BME280;68369;51.050;17.018;2023-07-08T15:41:04;100505.44;;;37.17;19.28
79004;BME280;68369;51.050;17.018;2023-07-08T15:43:54;100509.19;;;38.06;18.19
79004;BME280;68369;51.050;17.018;2023-07-08T15:46:46;100506.77;;;38.95;17.70
79004;BME280;68369;51.050;17.018;2023-07-08T15:49:35;100505.70;;;39.41;17.24
79004;BME280;68369;51.050;17.018;2023-07-08T15:52:21;100505.66;;;39.41;16.84
79004;BME280;68369;51.050;17.018;2023-07-08T15:55:09;100506.75;;;38.90;16.71
79004;BME280;68369;51.050;17.018;2023-07-08T15:58:03;100507.22;;;37.94;17.01
79004;BME280;68369;51.050;17.018;2023-07-08T16:00:50;100500.22;;;37.35;17.30
79004;BME280;68369;51.050;17.018;2023-07-08T16:03:39;100499.42;;;37.54;17.75
79004;BME280;68369;51.050;17.018;2023-07-08T16:06:28;100492.45;;;37.70;18.09
79004;BME280;68369;51.050;17.018;2023-07-08T16:09:14;100493.12;;;38.03;17.97
79004;BME280;68369;51.050;17.018;2023-07-08T16:12:04;100500.63;;;37.71;18.02
79004;BME280;68369;51.050;17.018;2023-07-08T16:14:50;100498.58;;;36.99;18.12
79004;BME280;68369;51.050;17.018;2023-07-08T16:17:37;100493.65;;;36.21;18.40
79004;BME280;68369;51.050;17.018;2023-07-08T16:20:26;100494.29;;;35.48;19.33
79004;BME280;68369;51.050;17.018;2023-07-08T16:23:13;100491.73;;;34.74;20.13
79004;BME280;68369;51.050;17.018;2023-07-08T16:26:02;100491.48;;;34.07;20.52
79004;BME280;68369;51.050;17.018;2023-07-08T16:28:49;100493.45;;;33.44;20.90
79004;BME280;68369;51.050;17.018;2023-07-08T16:31:36;100492.64;;;32.84;21.65
79004;BME280;68369;51.050;17.018;2023-07-08T16:34:22;100487.09;;;32.29;22.25
79004;BME280;68369;51.050;17.018;2023-07-08T16:37:08;100491.50;;;31.78;23.02
79004;BME280;68369;51.050;17.018;2023-07-08T16:39:54;100491.46;;;31.32;23.36
79004;BME280;68369;51.050;17.018;2023-07-08T16:49:31;100489.59;;;30.14;25.20
79004;BME280;68369;51.050;17.018;2023-07-08T16:52:19;100493.04;;;29.80;25.68
79004;BME280;68369;51.050;17.018;2023-07-08T16:55:16;100490.61;;;29.53;26.10
79004;BME280;68369;51.050;17.018;2023-07-08T16:58:11;100493.39;;;29.27;27.02
79004;BME280;68369;51.050;17.018;2023-07-08T17:00:57;100492.51;;;29.04;26.99
79004;BME280;68369;51.050;17.018;2023-07-08T17:03:44;100487.33;;;28.82;28.11
79004;BME280;68369;51.050;17.018;2023-07-08T17:06:30;100485.66;;;28.62;28.70
79004;BME280;68369;51.050;17.018;2023-07-08T17:09:18;100491.23;;;28.45;28.86
79004;BME280;68369;51.050;17.018;2023-07-08T17:12:07;100492.70;;;28.29;29.10
79004;BME280;68369;51.050;17.018;2023-07-08T17:14:53;100489.52;;;28.14;29.61